createdAt,value
2023-05-08T00:01:56.610Z,30.40
2023-05-08T00:04:25.783Z,30.40
2023-05-08T00:06:53.489Z,30.40
2023-05-08T00:09:22.189Z,30.40
2023-05-08T00:11:49.810Z,30.40
2023-05-08T00:14:17.452Z,30.40
2023-05-08T00:16:45.215Z,30.40
2023-05-08T00:19:12.901Z,30.40
2023-05-08T00:21:42.220Z,30.40
2023-05-08T00:24:09.856Z,30.40
2023-05-08T00:26:37.492Z,30.40
2023-05-08T00:29:06.541Z,30.40
2023-05-08T00:31:34.562Z,30.30
2023-05-08T00:34:02.165Z,30.30
2023-05-08T00:36:29.822Z,30.30
2023-05-08T00:38:58.838Z,30.30
2023-05-08T00:41:26.475Z,30.30
2023-05-08T00:43:54.094Z,30.30
2023-05-08T00:46:21.863Z,30.30
2023-05-08T00:48:49.792Z,30.30
2023-05-08T00:51:17.670Z,30.30
2023-05-08T00:53:45.603Z,30.30
2023-05-08T00:56:16.836Z,30.30
2023-05-08T00:58:45.710Z,30.30
2023-05-08T01:01:13.565Z,30.30
2023-05-08T01:03:41.794Z,30.30
2023-05-08T01:06:09.655Z,30.30
2023-05-08T01:08:37.545Z,30.20
2023-05-08T01:11:13.870Z,30.20
2023-05-08T01:13:53.214Z,30.20
2023-05-08T01:16:30.912Z,30.20
2023-05-08T01:19:08.229Z,30.20
2023-05-08T01:21:41.424Z,30.20
2023-05-08T01:24:50.547Z,30.20
2023-05-08T01:27:39.493Z,30.20
2023-05-08T01:30:26.333Z,30.20
2023-05-08T01:32:58.470Z,30.20
2023-05-08T01:35:33.734Z,30.20
2023-05-08T01:38:09.771Z,30.20
2023-05-08T01:40:45.781Z,30.10
2023-05-08T01:43:20.842Z,30.20
2023-05-08T01:45:51.077Z,30.10
2023-05-08T01:48:25.428Z,30.10
2023-05-08T01:50:57.538Z,30.10
2023-05-08T01:53:29.558Z,30.10
2023-05-08T01:55:59.409Z,30.10
2023-05-08T01:58:28.675Z,30.10
2023-05-08T02:00:57.665Z,30.10
2023-05-08T02:03:27.177Z,30.10
2023-05-08T02:05:57.526Z,30.10
2023-05-08T02:08:27.158Z,30.10
2023-05-08T02:10:55.020Z,30.10
2023-05-08T02:13:23.562Z,30.10
2023-05-08T02:15:53.722Z,30.10
2023-05-08T02:18:22.627Z,30.10
2023-05-08T02:20:53.175Z,30.10
2023-05-08T02:23:22.933Z,30.10
2023-05-08T02:25:51.595Z,30.00
2023-05-08T02:28:20.608Z,30.00
2023-05-08T02:30:49.994Z,30.00
2023-05-08T02:33:18.998Z,30.00
2023-05-08T02:35:50.571Z,30.00
2023-05-08T02:38:22.317Z,30.00
2023-05-08T02:40:55.012Z,30.00
2023-05-08T02:43:23.988Z,30.00
2023-05-08T02:46:00.298Z,30.00
2023-05-08T02:48:34.844Z,30.00
2023-05-08T02:51:11.296Z,30.00
2023-05-08T02:53:47.487Z,30.00
2023-05-08T02:56:23.028Z,30.00
2023-05-08T02:58:58.725Z,30.00
2023-05-08T03:01:30.230Z,30.00
2023-05-08T03:04:03.640Z,30.00
2023-05-08T03:06:37.688Z,30.00
2023-05-08T03:09:09.113Z,29.90
2023-05-08T03:11:41.632Z,29.90
2023-05-08T03:14:12.616Z,29.90
2023-05-08T03:16:44.053Z,29.90
2023-05-08T03:19:17.786Z,29.90
2023-05-08T03:21:47.282Z,29.90
2023-05-08T03:24:17.837Z,29.90
2023-05-08T03:26:45.946Z,29.90
2023-05-08T03:29:14.730Z,29.90
2023-05-08T03:31:44.727Z,29.90
2023-05-08T03:34:14.628Z,29.90
2023-05-08T03:36:42.726Z,29.90
2023-05-08T03:39:10.624Z,29.90
2023-05-08T03:41:39.641Z,29.90
2023-05-08T03:44:08.978Z,29.90
2023-05-08T03:46:37.114Z,29.90
2023-05-08T03:49:05.891Z,29.90
2023-05-08T03:51:33.907Z,29.90
2023-05-08T03:54:01.513Z,29.90
2023-05-08T03:56:29.228Z,29.80
2023-05-08T03:59:14.782Z,29.80
2023-05-08T04:01:51.608Z,29.80
2023-05-08T04:04:28.952Z,29.80
2023-05-08T04:07:03.838Z,29.80
2023-05-08T04:09:35.923Z,29.80
2023-05-08T04:12:06.445Z,29.80
2023-05-08T04:14:38.919Z,29.80
2023-05-08T04:17:10.892Z,29.80
2023-05-08T04:19:43.875Z,29.80
2023-05-08T04:22:13.697Z,29.80
2023-05-08T04:24:44.421Z,29.80
2023-05-08T04:27:13.797Z,29.80
2023-05-08T04:29:43.083Z,29.80
2023-05-08T04:32:11.931Z,29.80
2023-05-08T04:34:39.698Z,29.80
2023-05-08T04:37:07.880Z,29.80
2023-05-08T04:39:35.509Z,29.80
2023-05-08T04:42:04.770Z,29.80
2023-05-08T04:44:32.446Z,29.70
2023-05-08T04:47:01.444Z,29.70
2023-05-08T04:49:29.099Z,29.70
2023-05-08T04:51:56.731Z,29.70
2023-05-08T04:54:24.457Z,29.70
2023-05-08T04:56:52.116Z,29.70
2023-05-08T04:59:19.771Z,29.70
2023-05-08T05:01:48.264Z,29.70
2023-05-08T05:04:17.648Z,29.70
2023-05-08T05:06:45.575Z,29.70
2023-05-08T05:09:13.230Z,29.70
2023-05-08T05:11:40.919Z,29.70
2023-05-08T05:14:08.609Z,29.70
2023-05-08T05:16:36.383Z,29.70
2023-05-08T05:19:04.816Z,29.70
2023-05-08T05:21:33.868Z,29.70
2023-05-08T05:24:01.504Z,29.70
2023-05-08T05:26:29.142Z,29.70
2023-05-08T05:28:56.806Z,29.70
2023-05-08T05:31:24.476Z,29.70
2023-05-08T05:33:52.310Z,29.70
2023-05-08T05:36:19.936Z,29.70
2023-05-08T05:38:48.912Z,29.70
2023-05-08T05:41:16.566Z,29.70
2023-05-08T05:43:44.180Z,29.70
2023-05-08T05:46:12.021Z,29.70
2023-05-08T05:48:48.784Z,29.70
2023-05-08T05:51:16.540Z,29.70
2023-05-08T05:53:44.835Z,29.70
2023-05-08T05:56:13.839Z,29.70
2023-05-08T05:58:44.763Z,29.70
2023-05-08T06:01:12.677Z,29.70
2023-05-08T06:03:40.442Z,29.70
2023-05-08T06:06:08.737Z,29.70
2023-05-08T06:08:36.442Z,29.70
2023-05-08T06:11:04.330Z,29.70
2023-05-08T06:13:33.529Z,29.70
2023-05-08T06:16:01.332Z,29.70
2023-05-08T06:18:29.044Z,29.70
2023-05-08T06:20:58.564Z,29.70
2023-05-08T06:23:27.031Z,29.70
2023-05-08T06:25:55.172Z,29.70
2023-05-08T06:28:25.923Z,29.70
2023-05-08T06:30:55.188Z,29.80
2023-05-08T06:33:25.441Z,29.70
2023-05-08T06:35:54.363Z,29.80
2023-05-08T06:38:22.159Z,29.80
2023-05-08T06:40:50.665Z,29.80
2023-05-08T06:43:18.370Z,29.80
2023-05-08T06:45:46.418Z,29.80
2023-05-08T06:48:15.497Z,29.80
2023-05-08T06:50:43.321Z,29.80
2023-05-08T06:53:11.121Z,29.80
2023-05-08T06:55:38.714Z,29.80
2023-05-08T06:58:06.367Z,29.80
2023-05-08T07:00:34.138Z,29.80
2023-05-08T07:03:01.856Z,29.80
2023-05-08T07:05:30.880Z,29.80
2023-05-08T07:07:58.576Z,29.80
2023-05-08T07:10:26.495Z,29.80
2023-05-08T07:12:54.548Z,29.80
2023-05-08T07:15:26.429Z,29.80
2023-05-08T07:17:54.811Z,29.80
2023-05-08T07:20:24.471Z,29.80
2023-05-08T07:22:53.687Z,29.90
2023-05-08T07:25:21.634Z,29.90
2023-05-08T07:27:49.324Z,29.90
2023-05-08T07:30:17.420Z,29.90
2023-05-08T07:32:45.035Z,29.90
2023-05-08T07:35:13.392Z,29.90
2023-05-08T07:37:41.180Z,29.90
2023-05-08T07:40:11.034Z,29.90
2023-05-08T07:42:42.099Z,29.90
2023-05-08T07:45:11.789Z,29.90
2023-05-08T07:47:39.979Z,29.90
2023-05-08T07:50:08.509Z,29.90
2023-05-08T07:52:36.214Z,29.90
2023-05-08T07:55:04.158Z,30.00
2023-05-08T07:57:38.839Z,30.00
2023-05-08T08:00:08.140Z,30.00
2023-05-08T08:02:36.452Z,30.00
2023-05-08T08:05:04.329Z,30.00
2023-05-08T08:07:33.281Z,30.00
2023-05-08T08:10:01.109Z,30.00
2023-05-08T08:12:29.240Z,30.00
2023-05-08T08:14:58.288Z,30.00
2023-05-08T08:17:28.528Z,30.00
2023-05-08T08:19:57.187Z,30.00
2023-05-08T08:22:25.088Z,30.10
2023-05-08T08:24:55.058Z,30.10
2023-05-08T08:27:23.170Z,30.10
2023-05-08T08:29:54.503Z,30.10
2023-05-08T08:32:30.611Z,30.10
2023-05-08T08:34:58.281Z,30.10
2023-05-08T08:37:26.358Z,30.10
2023-05-08T08:39:54.900Z,30.10
2023-05-08T08:42:23.512Z,30.10
2023-05-08T08:44:51.294Z,30.10
2023-05-08T08:47:20.649Z,30.20
2023-05-08T08:49:50.071Z,30.20
2023-05-08T08:52:28.328Z,30.20
2023-05-08T08:54:57.716Z,30.20
2023-05-08T08:57:26.699Z,30.20
2023-05-08T08:59:55.909Z,30.20
2023-05-08T09:02:25.190Z,30.20
2023-05-08T09:04:54.378Z,30.20
2023-05-08T09:07:23.106Z,30.20
2023-05-08T09:09:51.608Z,30.30
2023-05-08T09:12:19.296Z,30.30
2023-05-08T09:14:47.022Z,30.30
2023-05-08T09:17:14.671Z,30.30
2023-05-08T09:19:43.235Z,30.30
2023-05-08T09:22:13.293Z,30.30
2023-05-08T09:24:56.813Z,30.30
2023-05-08T09:27:26.623Z,30.30
2023-05-08T09:30:02.857Z,30.30
2023-05-08T09:32:30.975Z,30.30
2023-05-08T09:34:59.074Z,30.30
2023-05-08T09:37:29.001Z,30.30
2023-05-08T09:40:14.324Z,30.30
2023-05-08T09:42:42.219Z,30.30
2023-05-08T09:45:11.413Z,30.30
2023-05-08T09:47:40.139Z,30.30
2023-05-08T09:50:09.815Z,30.30
2023-05-08T09:52:40.685Z,30.40
2023-05-08T09:55:10.307Z,30.40
2023-05-08T09:57:39.750Z,30.40
2023-05-08T10:00:09.913Z,30.40
2023-05-08T10:02:39.866Z,30.40
2023-05-08T10:05:24.974Z,30.40
2023-05-08T10:07:54.596Z,30.40
2023-05-08T10:10:27.705Z,30.40
2023-05-08T10:12:57.276Z,30.40
2023-05-08T10:15:26.684Z,30.40
2023-05-08T10:17:56.623Z,30.40
2023-05-08T10:20:28.221Z,30.40
2023-05-08T10:22:57.945Z,30.40
2023-05-08T10:25:26.705Z,30.40
2023-05-08T10:28:03.516Z,30.40
2023-05-08T10:30:32.998Z,30.40
2023-05-08T10:33:04.368Z,30.40
2023-05-08T10:35:32.828Z,30.40
2023-05-08T10:38:03.368Z,30.40
2023-05-08T10:40:31.128Z,30.50
2023-05-08T10:43:00.474Z,30.50
2023-05-08T10:45:29.872Z,30.50
2023-05-08T10:48:04.778Z,30.50
2023-05-08T10:50:47.399Z,30.50
2023-05-08T10:53:19.939Z,30.50
2023-05-08T10:55:51.051Z,30.50
2023-05-08T10:58:31.492Z,30.50
2023-05-08T11:01:16.655Z,30.50
2023-05-08T11:03:46.838Z,30.40
2023-05-08T11:06:15.342Z,30.50
2023-05-08T11:08:54.803Z,30.50
2023-05-08T11:11:29.283Z,30.50
2023-05-08T11:14:01.355Z,30.50
2023-05-08T11:17:11.729Z,30.50
2023-05-08T11:19:39.896Z,30.40
2023-05-08T11:22:25.843Z,30.50
2023-05-08T11:25:00.405Z,30.50
2023-05-08T11:27:39.763Z,30.50
2023-05-08T11:30:24.630Z,30.40
2023-05-08T11:33:16.803Z,30.40
2023-05-08T11:35:47.420Z,30.40
2023-05-08T11:38:32.742Z,30.50
2023-05-08T11:41:04.075Z,30.40
2023-05-08T11:44:14.784Z,30.50
2023-05-08T11:46:48.245Z,30.50
2023-05-08T11:49:18.904Z,30.50
2023-05-08T11:51:50.371Z,30.50
2023-05-08T11:54:19.688Z,30.50
2023-05-08T11:56:49.570Z,30.50
2023-05-08T11:59:18.147Z,30.50
2023-05-08T12:01:53.564Z,30.50
2023-05-08T12:04:28.189Z,30.50
2023-05-08T12:06:58.746Z,30.50
2023-05-08T12:09:26.984Z,30.50
2023-05-08T12:11:59.074Z,30.50
2023-05-08T12:14:26.876Z,30.50
2023-05-08T12:16:54.660Z,30.50
2023-05-08T12:19:22.654Z,30.50
2023-05-08T12:21:51.436Z,30.50
2023-05-08T12:24:23.215Z,30.50
2023-05-08T12:26:54.312Z,30.50
2023-05-08T12:29:24.007Z,30.50
2023-05-08T12:31:53.787Z,30.50
2023-05-08T12:34:22.405Z,30.50
2023-05-08T12:36:51.306Z,30.50
2023-05-08T12:39:19.996Z,30.50
2023-05-08T12:41:49.117Z,30.50
2023-05-08T12:44:18.755Z,30.50
2023-05-08T12:46:53.175Z,30.50
2023-05-08T12:49:26.208Z,30.60
2023-05-08T12:52:01.609Z,30.50
2023-05-08T12:54:37.289Z,30.50
2023-05-08T12:57:10.642Z,30.50
2023-05-08T12:59:38.375Z,30.50
2023-05-08T13:02:13.900Z,30.60
2023-05-08T13:04:41.762Z,30.60
2023-05-08T13:07:09.588Z,30.60
2023-05-08T13:09:37.446Z,30.60
2023-05-08T13:12:05.774Z,30.60
2023-05-08T13:14:33.608Z,30.60
2023-05-08T13:17:01.388Z,30.60
2023-05-08T13:19:30.633Z,30.60
2023-05-08T13:21:58.278Z,30.60
2023-05-08T13:24:26.854Z,30.60
2023-05-08T13:26:54.518Z,30.60
2023-05-08T13:29:22.465Z,30.60
2023-05-08T13:31:50.158Z,30.60
2023-05-08T13:34:18.128Z,30.60
2023-05-08T13:36:47.267Z,30.60
2023-05-08T13:39:15.251Z,30.60
2023-05-08T13:41:42.885Z,30.60
2023-05-08T13:44:10.903Z,30.60
2023-05-08T13:46:38.529Z,30.60
2023-05-08T13:49:06.214Z,30.60
2023-05-08T13:51:33.928Z,30.60
2023-05-08T13:54:03.006Z,30.60
2023-05-08T13:56:30.711Z,30.60
2023-05-08T13:58:58.790Z,30.60
2023-05-08T14:01:27.765Z,30.60
2023-05-08T14:03:55.812Z,30.60
2023-05-08T14:06:23.929Z,30.60
2023-05-08T14:08:53.582Z,30.60
2023-05-08T14:11:24.397Z,30.60
2023-05-08T14:13:52.143Z,30.60
2023-05-08T14:16:20.034Z,30.60
2023-05-08T14:18:47.785Z,30.60
2023-05-08T14:21:15.492Z,30.60
2023-05-08T14:23:43.830Z,30.60
2023-05-08T14:26:11.767Z,30.60
2023-05-08T14:28:40.803Z,30.60
2023-05-08T14:31:08.551Z,30.60
2023-05-08T14:33:36.275Z,30.60
2023-05-08T14:36:04.086Z,30.60
2023-05-08T14:38:32.045Z,30.60
2023-05-08T14:41:03.177Z,30.60
2023-05-08T14:43:32.095Z,30.60
2023-05-08T14:46:01.229Z,30.60
2023-05-08T14:48:28.975Z,30.60
2023-05-08T14:50:57.683Z,30.60
2023-05-08T14:53:25.564Z,30.60
2023-05-08T14:55:53.589Z,30.60
2023-05-08T14:58:21.459Z,30.60
2023-05-08T15:00:49.194Z,30.60
2023-05-08T15:03:18.680Z,30.60
2023-05-08T15:05:47.207Z,30.60
2023-05-08T15:08:14.974Z,30.60
2023-05-08T15:10:43.386Z,30.60
2023-05-08T15:13:11.117Z,30.60
2023-05-08T15:15:39.078Z,30.60
2023-05-08T15:18:06.898Z,30.60
2023-05-08T15:20:36.007Z,30.60
2023-05-08T15:23:03.699Z,30.60
2023-05-08T15:25:31.368Z,30.60
2023-05-08T15:28:00.720Z,30.60
2023-05-08T15:30:28.952Z,30.60
2023-05-08T15:32:56.721Z,30.60
2023-05-08T15:35:24.450Z,30.60
2023-05-08T15:37:53.464Z,30.60
2023-05-08T15:40:21.156Z,30.60
2023-05-08T15:42:48.833Z,30.60
2023-05-08T15:45:16.641Z,30.60
2023-05-08T15:47:44.438Z,30.60
2023-05-08T15:50:12.462Z,30.60
2023-05-08T15:52:40.184Z,30.60
2023-05-08T15:55:09.831Z,30.60
2023-05-08T15:57:37.479Z,30.60
2023-05-08T16:00:06.063Z,30.60
2023-05-08T16:02:33.903Z,30.60
2023-05-08T16:05:01.664Z,30.60
2023-05-08T16:07:29.310Z,30.60
2023-05-08T16:09:56.987Z,30.60
2023-05-08T16:12:26.016Z,30.60
2023-05-08T16:14:53.681Z,30.60
2023-05-08T16:17:21.322Z,30.60
2023-05-08T16:19:48.998Z,30.60
2023-05-08T16:22:16.684Z,30.60
2023-05-08T16:24:44.365Z,30.60
2023-05-08T16:27:12.430Z,30.60
2023-05-08T16:29:41.494Z,30.60
2023-05-08T16:32:09.159Z,30.60
2023-05-08T16:34:36.933Z,30.60
2023-05-08T16:37:04.624Z,30.60
2023-05-08T16:39:32.387Z,30.60
2023-05-08T16:42:00.153Z,30.60
2023-05-08T16:44:27.836Z,30.60
2023-05-08T16:46:56.955Z,30.50
2023-05-08T16:49:24.610Z,30.50
2023-05-08T16:51:52.270Z,30.50
2023-05-08T16:54:19.965Z,30.50
2023-05-08T16:56:47.611Z,30.50
2023-05-08T16:59:15.295Z,30.50
2023-05-08T17:01:43.042Z,30.50
2023-05-08T17:04:12.084Z,30.50
2023-05-08T17:06:40.414Z,30.50
2023-05-08T17:09:08.188Z,30.50
2023-05-08T17:11:35.890Z,30.50
2023-05-08T17:14:03.552Z,30.50
2023-05-08T17:16:31.304Z,30.50
2023-05-08T17:18:59.740Z,30.50
2023-05-08T17:21:30.227Z,30.50
2023-05-08T17:23:57.882Z,30.50
2023-05-08T17:26:25.604Z,30.50
2023-05-08T17:28:53.271Z,30.50
2023-05-08T17:31:21.373Z,30.50
2023-05-08T17:33:49.097Z,30.50
2023-05-08T17:36:16.784Z,30.50
2023-05-08T17:38:47.220Z,30.50
2023-05-08T17:41:15.173Z,30.50
2023-05-08T17:43:42.862Z,30.50
2023-05-08T17:46:10.833Z,30.50
2023-05-08T17:48:38.576Z,30.50
2023-05-08T17:51:06.361Z,30.50
2023-05-08T17:53:34.070Z,30.50
2023-05-08T17:56:03.093Z,30.50
2023-05-08T17:58:30.867Z,30.50
2023-05-08T18:00:58.591Z,30.50
2023-05-08T18:03:26.318Z,30.50
2023-05-08T18:05:54.168Z,30.50
2023-05-08T18:08:22.033Z,30.50
2023-05-08T18:10:49.715Z,30.40
2023-05-08T18:13:18.785Z,30.50
2023-05-08T18:15:46.551Z,30.50
2023-05-08T18:18:14.243Z,30.40
2023-05-08T18:20:42.009Z,30.50
2023-05-08T18:23:09.675Z,30.40
2023-05-08T18:25:38.024Z,30.40
2023-05-08T18:28:06.135Z,30.40
2023-05-08T18:30:36.562Z,30.40
2023-05-08T18:33:04.321Z,30.40
2023-05-08T18:35:32.025Z,30.40
2023-05-08T18:38:02.610Z,30.40
2023-05-08T18:40:30.736Z,30.40
2023-05-08T18:42:58.486Z,30.40
2023-05-08T18:45:26.295Z,30.40
2023-05-08T18:47:57.526Z,30.40
2023-05-08T18:50:25.905Z,30.40
2023-05-08T18:52:53.588Z,30.40
2023-05-08T18:55:21.243Z,30.40
2023-05-08T18:57:48.880Z,30.40
2023-05-08T19:00:24.350Z,30.40
2023-05-08T19:03:01.963Z,30.40
2023-05-08T19:05:30.142Z,30.40
2023-05-08T19:07:57.828Z,30.40
2023-05-08T19:10:25.722Z,30.40
2023-05-08T19:12:53.427Z,30.40
2023-05-08T19:15:21.233Z,30.40
2023-05-08T19:17:49.177Z,30.40
2023-05-08T19:20:18.298Z,30.40
2023-05-08T19:22:46.788Z,30.40
2023-05-08T19:25:14.652Z,30.40
2023-05-08T19:27:42.330Z,30.40
2023-05-08T19:30:10.970Z,30.40
2023-05-08T19:32:38.762Z,30.40
2023-05-08T19:35:08.213Z,30.40
2023-05-08T19:37:37.909Z,30.40
2023-05-08T19:40:06.152Z,30.40
2023-05-08T19:42:34.009Z,30.40
2023-05-08T19:45:01.701Z,30.40
2023-05-08T19:47:29.489Z,30.40
2023-05-08T19:49:57.523Z,30.40
2023-05-08T19:52:25.610Z,30.40
2023-05-08T19:54:54.833Z,30.40
2023-05-08T19:57:22.563Z,30.40
2023-05-08T19:59:50.681Z,30.40
2023-05-08T20:02:18.387Z,30.40
2023-05-08T20:05:14.360Z,30.40
2023-05-08T20:07:33.832Z,30.40
2023-05-08T20:10:02.904Z,30.40
2023-05-08T20:12:30.559Z,30.40
2023-05-08T20:14:58.381Z,30.40
2023-05-08T20:17:26.147Z,30.40
2023-05-08T20:19:54.002Z,30.40
2023-05-08T20:22:21.830Z,30.40
2023-05-08T20:24:49.599Z,30.40
2023-05-08T20:27:18.761Z,30.40
2023-05-08T20:29:46.723Z,30.40
2023-05-08T20:32:16.405Z,30.30
2023-05-08T20:34:44.499Z,30.40
2023-05-08T20:37:13.046Z,30.40
2023-05-08T20:39:40.675Z,30.40
2023-05-08T20:42:08.605Z,30.40
2023-05-08T20:44:37.616Z,30.40
2023-05-08T20:47:05.699Z,30.40
2023-05-08T20:49:33.436Z,30.40
2023-05-08T20:52:01.425Z,30.40
2023-05-08T20:54:30.136Z,30.40
2023-05-08T20:56:58.156Z,30.40
2023-05-08T20:59:25.975Z,30.40
2023-05-08T21:01:55.125Z,30.40
2023-05-08T21:04:22.865Z,30.40
2023-05-08T21:06:52.039Z,30.40
2023-05-08T21:09:20.024Z,30.40
2023-05-08T21:11:47.701Z,30.40
2023-05-08T21:14:15.805Z,30.40
2023-05-08T21:16:43.486Z,30.40
2023-05-08T21:19:17.161Z,30.40
2023-05-08T21:21:45.038Z,30.40
2023-05-08T21:24:12.839Z,30.40
2023-05-08T21:26:40.663Z,30.40
2023-05-08T21:29:10.708Z,30.40
2023-05-08T21:31:38.577Z,30.40
2023-05-08T21:34:06.919Z,30.40
2023-05-08T21:36:36.086Z,30.40
2023-05-08T21:39:03.969Z,30.40
2023-05-08T21:41:33.168Z,30.40
2023-05-08T21:44:00.921Z,30.40
2023-05-08T21:46:28.760Z,30.40
2023-05-08T21:48:56.468Z,30.40
2023-05-08T21:51:24.198Z,30.40
2023-05-08T21:53:53.237Z,30.40
2023-05-08T21:56:20.919Z,30.40
2023-05-08T21:58:49.069Z,30.40
2023-05-08T22:01:16.843Z,30.40
2023-05-08T22:03:44.653Z,30.40
2023-05-08T22:06:12.422Z,30.40
2023-05-08T22:08:40.055Z,30.40
2023-05-08T22:11:09.045Z,30.40
2023-05-08T22:13:36.696Z,30.40
2023-05-08T22:16:04.582Z,30.40
2023-05-08T22:18:32.324Z,30.40
2023-05-08T22:20:59.959Z,30.40
2023-05-08T22:23:27.660Z,30.40
2023-05-08T22:25:55.364Z,30.40
2023-05-08T22:28:24.375Z,30.40
2023-05-08T22:30:52.055Z,30.40
2023-05-08T22:33:19.750Z,30.40
2023-05-08T22:35:47.401Z,30.40
2023-05-08T22:38:15.523Z,30.40
2023-05-08T22:40:43.382Z,30.40
2023-05-08T22:43:11.056Z,30.40
2023-05-08T22:45:40.113Z,30.40
2023-05-08T22:48:08.398Z,30.40
2023-05-08T22:50:36.553Z,30.40
2023-05-08T22:53:07.920Z,30.40
2023-05-08T22:55:38.102Z,30.40
2023-05-08T22:58:05.917Z,30.40
2023-05-08T23:00:33.645Z,30.30
2023-05-08T23:03:02.688Z,30.30
2023-05-08T23:05:30.522Z,30.40
2023-05-08T23:07:58.165Z,30.30
2023-05-08T23:10:25.966Z,30.30
2023-05-08T23:12:53.617Z,30.30
2023-05-08T23:15:22.049Z,30.30
2023-05-08T23:17:50.086Z,30.30
2023-05-08T23:20:19.300Z,30.30
2023-05-08T23:22:46.965Z,30.30
2023-05-08T23:25:14.874Z,30.30
2023-05-08T23:27:42.637Z,30.30
2023-05-08T23:30:13.013Z,30.30
2023-05-08T23:32:41.323Z,30.30
2023-05-08T23:35:09.380Z,30.30
2023-05-08T23:37:38.417Z,30.30
2023-05-08T23:40:07.544Z,30.30
2023-05-08T23:42:37.161Z,30.30
2023-05-08T23:45:06.523Z,30.30
2023-05-08T23:47:34.232Z,30.30
2023-05-08T23:50:02.110Z,30.30
2023-05-08T23:52:29.779Z,30.30
2023-05-08T23:54:58.825Z,30.30
2023-05-08T23:57:26.476Z,30.30
2023-05-08T23:59:54.121Z,30.20
